Sequim, Washington
Current Conditions -  °F | °C
As of 4:53 AM on Saturday 20 Dec 2014 (Local Time) from KCLM Reporting Station
Overcast Overcast  
Wind Chill: 39°   Ceiling: 7000
Heat Index: 42°   Visibility: 10mi
Dew Point: 39°   Wind: 5mph
Humidity: 89%   Direction: 170°S
Pressure: 29.56"   Gusts: NA
Location:  48.08°N, 123.1°W
Report Text: KCLM 201253Z AUTO 17004KT 10SM OVC070 06/04 A2956 RMK AO2 SLP011 T00560039 TSNO $
Loading
Personal Weather Stations






























Interactive Weather Map New forecast layout! Learn more

10-Day Weather Forecast

Advertisements
Track Severe Weather on mobile